createdAt,value
2019-01-27T00:01:26.434Z,7.60
2019-01-27T00:05:32.326Z,12.80
2019-01-27T00:09:38.154Z,10.97
2019-01-27T00:13:45.072Z,71.90
2019-01-27T00:17:53.059Z,131.23
2019-01-27T00:22:00.153Z,97.77
2019-01-27T00:26:08.210Z,158.57
2019-01-27T00:30:28.613Z,246.20
2019-01-27T00:34:35.704Z,42.80
2019-01-27T00:38:43.199Z,18.10
2019-01-27T00:42:49.459Z,70.00
2019-01-27T00:46:55.178Z,93.20
2019-01-27T00:51:01.388Z,36.70
2019-01-27T00:55:07.301Z,39.83
2019-01-27T00:59:13.349Z,64.07
2019-01-27T01:03:19.365Z,18.00
2019-01-27T01:07:26.242Z,47.80
2019-01-27T01:11:32.031Z,17.80
2019-01-27T01:15:37.999Z,12.07
2019-01-27T01:19:43.948Z,38.30
2019-01-27T01:23:49.682Z,22.50
2019-01-27T01:27:55.485Z,13.70
2019-01-27T01:32:01.505Z,15.93
2019-01-27T01:36:07.619Z,17.73
2019-01-27T01:40:14.418Z,16.27
2019-01-27T01:44:20.187Z,15.67
2019-01-27T01:48:25.842Z,16.27
2019-01-27T01:52:31.920Z,15.63
2019-01-27T01:56:37.902Z,17.87
2019-01-27T02:00:44.597Z,13.20
2019-01-27T02:04:50.346Z,11.93
2019-01-27T02:08:56.078Z,17.73
2019-01-27T02:13:02.387Z,17.20
2019-01-27T02:17:08.319Z,18.50
2019-01-27T02:21:14.535Z,14.98
2019-01-27T02:25:20.681Z,21.20
2019-01-27T02:29:26.374Z,18.10
2019-01-27T02:33:31.984Z,15.72
2019-01-27T02:37:37.949Z,18.00
2019-01-27T02:41:43.730Z,18.53
2019-01-27T02:45:49.446Z,20.57
2019-01-27T02:49:56.122Z,18.33
2019-01-27T02:54:02.909Z,16.20
2019-01-27T02:58:08.824Z,17.20
2019-01-27T03:02:14.981Z,18.93
2019-01-27T03:06:32.632Z,18.40
2019-01-27T03:10:39.075Z,19.07
2019-01-27T03:14:46.121Z,13.00
2019-01-27T03:18:52.683Z,12.95
2019-01-27T03:22:59.465Z,15.55
2019-01-27T03:27:05.658Z,12.57
2019-01-27T03:31:12.240Z,11.20
2019-01-27T03:35:18.919Z,11.60
2019-01-27T03:39:25.569Z,10.60
2019-01-27T03:43:32.124Z,10.37
2019-01-27T03:47:38.928Z,11.13
2019-01-27T03:51:46.371Z,9.18
2019-01-27T03:55:52.580Z,10.03
2019-01-27T03:59:59.503Z,11.18
2019-01-27T04:04:06.154Z,11.87
2019-01-27T04:08:12.710Z,9.30
2019-01-27T04:12:19.502Z,8.17
2019-01-27T04:16:26.135Z,8.10
2019-01-27T04:20:32.836Z,10.10
2019-01-27T04:24:40.047Z,12.55
2019-01-27T04:28:46.574Z,11.23
2019-01-27T04:32:53.038Z,7.60
2019-01-27T04:36:59.465Z,11.17
2019-01-27T04:41:07.374Z,13.90
2019-01-27T04:45:15.308Z,9.30
2019-01-27T04:49:22.000Z,6.93
2019-01-27T04:53:28.752Z,7.60
2019-01-27T04:57:34.799Z,12.17
2019-01-27T05:01:41.452Z,8.40
2019-01-27T05:05:47.905Z,9.23
2019-01-27T05:09:54.576Z,9.33
2019-01-27T05:14:01.190Z,8.00
2019-01-27T05:18:07.753Z,9.60
2019-01-27T05:22:14.142Z,8.57
2019-01-27T05:26:20.796Z,7.57
2019-01-27T05:30:27.628Z,8.83
2019-01-27T05:34:34.028Z,8.63
2019-01-27T05:38:40.643Z,9.17
2019-01-27T05:42:47.422Z,13.18
2019-01-27T05:46:54.072Z,12.37
2019-01-27T05:51:00.724Z,8.00
2019-01-27T05:55:07.097Z,8.10
2019-01-27T05:59:14.020Z,10.13
2019-01-27T06:07:49.236Z,11.60
2019-01-27T06:11:55.379Z,13.63
2019-01-27T06:16:01.877Z,10.17
2019-01-27T06:20:08.598Z,7.73
2019-01-27T06:24:15.157Z,9.27
2019-01-27T06:28:21.986Z,7.17
2019-01-27T06:32:48.774Z,9.55
2019-01-27T06:36:55.660Z,8.77
2019-01-27T06:41:02.459Z,9.63
2019-01-27T06:45:09.041Z,8.60
2019-01-27T06:49:19.542Z,9.37
2019-01-27T06:53:26.643Z,15.73
2019-01-27T06:57:33.114Z,7.83
2019-01-27T07:01:43.980Z,8.60
2019-01-27T07:05:55.811Z,6.87
2019-01-27T07:14:52.008Z,7.20
2019-01-27T07:19:12.290Z,7.53
2019-01-27T07:23:26.866Z,9.80
2019-01-27T07:27:38.085Z,10.00
2019-01-27T07:31:48.406Z,6.93
2019-01-27T07:36:01.562Z,6.33
2019-01-27T07:40:12.235Z,6.13
2019-01-27T07:44:27.197Z,6.97
2019-01-27T07:48:37.617Z,6.90
2019-01-27T07:52:47.769Z,11.57
2019-01-27T07:56:57.658Z,7.20
2019-01-27T08:01:08.672Z,7.47
2019-01-27T08:05:19.825Z,8.50
2019-01-27T08:09:30.870Z,7.23
2019-01-27T08:14:40.604Z,9.90
2019-01-27T08:19:08.203Z,7.75
2019-01-27T08:23:18.221Z,5.80
2019-01-27T08:28:33.836Z,6.97
2019-01-27T08:32:43.790Z,7.10
2019-01-27T08:36:54.323Z,7.87
2019-01-27T08:41:08.086Z,7.30
2019-01-27T08:45:17.843Z,7.97
2019-01-27T08:49:24.299Z,8.73
2019-01-27T08:53:31.018Z,6.15
2019-01-27T08:57:37.412Z,10.23
2019-01-27T09:01:48.114Z,9.10
2019-01-27T09:05:58.278Z,9.63
2019-01-27T09:10:09.320Z,7.00
2019-01-27T09:14:35.336Z,10.53
2019-01-27T09:18:50.134Z,7.80
2019-01-27T09:23:00.149Z,6.60
2019-01-27T09:27:24.510Z,7.97
2019-01-27T09:31:35.964Z,10.00
2019-01-27T09:36:17.390Z,5.93
2019-01-27T09:40:28.022Z,8.43
2019-01-27T09:44:43.380Z,7.20
2019-01-27T09:48:56.906Z,13.43
2019-01-27T09:53:08.445Z,7.90
2019-01-27T09:57:18.668Z,5.77
2019-01-27T10:01:30.439Z,8.03
2019-01-27T10:05:41.380Z,7.87
2019-01-27T10:10:24.061Z,7.83
2019-01-27T10:15:33.894Z,5.90
2019-01-27T10:19:44.953Z,8.03
2019-01-27T10:23:56.757Z,8.50
2019-01-27T10:28:08.485Z,4.83
2019-01-27T10:32:20.818Z,6.50
2019-01-27T10:36:48.300Z,8.73
2019-01-27T10:41:02.498Z,5.33
2019-01-27T10:45:29.007Z,6.72
2019-01-27T10:49:46.822Z,7.47
2019-01-27T10:54:00.246Z,6.20
2019-01-27T10:58:11.309Z,5.47
2019-01-27T11:02:21.443Z,6.33
2019-01-27T11:06:50.812Z,8.43
2019-01-27T11:11:04.498Z,8.97
2019-01-27T11:17:19.131Z,6.83
2019-01-27T11:21:49.089Z,7.20
2019-01-27T11:26:57.842Z,9.70
2019-01-27T11:31:08.020Z,11.33
2019-01-27T11:35:22.502Z,7.87
2019-01-27T11:39:37.585Z,8.70
2019-01-27T11:43:56.840Z,6.15
2019-01-27T11:48:07.145Z,7.35
2019-01-27T11:52:22.921Z,11.43
2019-01-27T11:56:29.658Z,9.13
2019-01-27T12:00:43.146Z,9.50
2019-01-27T12:04:50.151Z,9.80
2019-01-27T12:08:56.885Z,9.00
2019-01-27T12:13:03.088Z,10.35
2019-01-27T12:17:09.260Z,10.80
2019-01-27T12:21:15.932Z,7.58
2019-01-27T12:25:22.330Z,14.73
2019-01-27T12:29:29.272Z,10.07
2019-01-27T12:33:35.589Z,13.30
2019-01-27T12:37:41.779Z,11.40
2019-01-27T12:41:48.448Z,13.18
2019-01-27T12:45:54.811Z,15.90
2019-01-27T12:50:01.384Z,14.73
2019-01-27T12:54:08.338Z,16.32
2019-01-27T12:58:17.549Z,17.20
2019-01-27T13:02:24.276Z,25.05
2019-01-27T13:06:33.148Z,25.10
2019-01-27T13:10:39.464Z,20.35
2019-01-27T13:14:47.713Z,17.67
2019-01-27T13:18:53.660Z,17.90
2019-01-27T13:23:00.213Z,17.43
2019-01-27T13:27:07.110Z,22.17
2019-01-27T13:31:14.550Z,12.93
2019-01-27T13:35:21.058Z,13.70
2019-01-27T13:39:27.673Z,11.80
2019-01-27T13:43:34.437Z,14.58
2019-01-27T13:47:40.894Z,13.03
2019-01-27T13:51:47.226Z,14.45
2019-01-27T13:55:53.727Z,13.15
2019-01-27T14:00:00.351Z,15.40
2019-01-27T14:04:08.401Z,15.93
2019-01-27T14:08:16.654Z,16.60
2019-01-27T14:12:23.715Z,12.60
2019-01-27T14:16:29.856Z,16.45
2019-01-27T14:20:35.741Z,14.07
2019-01-27T14:24:41.584Z,10.30
2019-01-27T14:28:47.686Z,15.07
2019-01-27T14:32:54.235Z,11.73
2019-01-27T14:36:59.905Z,11.03
2019-01-27T14:41:06.369Z,11.27
2019-01-27T14:45:12.183Z,10.75
2019-01-27T14:49:18.047Z,12.50
2019-01-27T14:53:23.924Z,10.18
2019-01-27T14:57:29.858Z,11.83
2019-01-27T15:01:35.931Z,9.33
2019-01-27T15:05:41.898Z,10.32
2019-01-27T15:09:47.864Z,9.30
2019-01-27T15:13:53.634Z,8.83
2019-01-27T15:17:59.565Z,8.88
2019-01-27T15:22:05.442Z,9.90
2019-01-27T15:26:11.621Z,7.10
2019-01-27T15:30:17.340Z,9.60
2019-01-27T15:34:26.428Z,8.07
2019-01-27T15:38:32.531Z,8.33
2019-01-27T15:42:38.680Z,8.27
2019-01-27T15:46:44.819Z,8.88
2019-01-27T15:50:50.893Z,8.00
2019-01-27T15:54:56.748Z,9.57
2019-01-27T15:59:02.654Z,8.07
2019-01-27T16:03:08.610Z,8.08
2019-01-27T16:07:14.599Z,8.53
2019-01-27T16:11:20.938Z,6.83
2019-01-27T16:15:27.090Z,8.18
2019-01-27T16:19:32.980Z,9.07
2019-01-27T16:23:43.031Z,7.63
2019-01-27T16:27:48.804Z,8.55
2019-01-27T16:31:59.465Z,7.77
2019-01-27T16:36:05.437Z,8.27
2019-01-27T16:40:11.457Z,8.18
2019-01-27T16:44:18.061Z,7.13
2019-01-27T16:48:23.966Z,7.72
2019-01-27T16:52:29.666Z,8.13
2019-01-27T16:56:35.629Z,7.08
2019-01-27T17:00:41.387Z,6.87
2019-01-27T17:04:48.283Z,7.50
2019-01-27T17:08:54.076Z,6.60
2019-01-27T17:13:00.238Z,7.80
2019-01-27T17:17:05.919Z,6.65
2019-01-27T17:21:11.919Z,7.42
2019-01-27T17:25:18.272Z,6.90
2019-01-27T17:29:24.220Z,6.77
2019-01-27T17:33:30.222Z,7.27
2019-01-27T17:37:36.648Z,6.53
2019-01-27T17:41:43.501Z,7.30
2019-01-27T17:45:49.064Z,7.50
2019-01-27T17:49:54.886Z,6.47
2019-01-27T17:54:03.756Z,6.87
2019-01-27T17:58:14.683Z,6.73
2019-01-27T18:02:28.781Z,8.10
2019-01-27T18:06:43.778Z,6.50
2019-01-27T18:10:59.863Z,7.63
2019-01-27T18:15:06.345Z,6.72
2019-01-27T18:19:12.425Z,6.87
2019-01-27T18:23:18.355Z,9.55
2019-01-27T18:27:24.133Z,7.47
2019-01-27T18:31:30.071Z,6.87
2019-01-27T18:35:35.800Z,5.90
2019-01-27T18:39:41.636Z,6.10
2019-01-27T18:43:47.496Z,7.30
2019-01-27T18:47:53.517Z,6.43
2019-01-27T18:52:00.745Z,9.60
2019-01-27T18:56:14.095Z,6.17
2019-01-27T19:00:30.515Z,6.28
2019-01-27T19:04:43.313Z,8.03
2019-01-27T19:09:08.967Z,7.05
2019-01-27T19:13:20.515Z,6.73
2019-01-27T19:17:30.436Z,6.00
2019-01-27T19:21:40.576Z,6.10
2019-01-27T19:25:50.033Z,5.67
2019-01-27T19:30:03.397Z,6.37
2019-01-27T19:34:17.353Z,7.30
2019-01-27T19:38:28.366Z,6.17
2019-01-27T19:42:43.331Z,5.43
2019-01-27T19:46:53.980Z,5.90
2019-01-27T19:51:08.194Z,7.83
2019-01-27T19:57:23.058Z,6.70
2019-01-27T20:01:36.299Z,6.30
2019-01-27T20:05:47.883Z,8.07
2019-01-27T20:09:57.497Z,5.80
2019-01-27T20:14:09.126Z,7.10
2019-01-27T20:18:18.903Z,6.33
2019-01-27T20:22:29.455Z,5.80
2019-01-27T20:26:39.318Z,5.10
2019-01-27T20:30:49.175Z,5.40
2019-01-27T20:35:02.179Z,7.13
2019-01-27T20:39:15.006Z,6.50
2019-01-27T20:43:28.508Z,4.92
2019-01-27T20:49:42.576Z,5.23
2019-01-27T20:53:53.442Z,5.47
2019-01-27T20:58:06.181Z,5.07
2019-01-27T21:03:18.511Z,6.07
2019-01-27T21:07:33.946Z,5.45
2019-01-27T21:12:52.541Z,7.75
2019-01-27T21:17:10.179Z,7.00
2019-01-27T21:21:16.249Z,6.17
2019-01-27T21:25:22.375Z,8.97
2019-01-27T21:29:28.411Z,6.45
2019-01-27T21:33:34.302Z,7.23
2019-01-27T21:37:40.174Z,4.30
2019-01-27T21:41:46.030Z,5.10
2019-01-27T21:45:52.062Z,7.90
2019-01-27T21:49:57.973Z,5.60
2019-01-27T21:54:03.901Z,5.47
2019-01-27T21:58:09.816Z,5.80
2019-01-27T22:02:15.173Z,5.53
2019-01-27T22:06:21.132Z,6.35
2019-01-27T22:10:26.866Z,5.20
2019-01-27T22:14:32.686Z,4.90
2019-01-27T22:18:38.510Z,5.00
2019-01-27T22:22:44.655Z,5.90
2019-01-27T22:26:50.657Z,5.93
2019-01-27T22:30:56.355Z,6.60
2019-01-27T22:35:02.390Z,8.63
2019-01-27T22:39:08.217Z,5.05
2019-01-27T22:43:14.240Z,7.07
2019-01-27T22:47:19.859Z,7.92
2019-01-27T22:51:25.849Z,6.13
2019-01-27T22:55:32.047Z,8.78
2019-01-27T22:59:37.626Z,7.25
2019-01-27T23:03:43.801Z,7.20
2019-01-27T23:07:49.869Z,7.37
2019-01-27T23:11:55.856Z,6.20
2019-01-27T23:16:01.959Z,8.50
2019-01-27T23:20:08.233Z,9.33
2019-01-27T23:24:13.965Z,7.00
2019-01-27T23:28:21.155Z,5.17
2019-01-27T23:32:26.988Z,6.27
2019-01-27T23:36:33.123Z,6.37
2019-01-27T23:40:38.814Z,6.23
2019-01-27T23:44:44.755Z,6.00
2019-01-27T23:48:50.338Z,5.10
2019-01-27T23:52:56.061Z,5.75
2019-01-27T23:57:02.649Z,12.33
